createdAt,value
2019-04-28T00:01:31.077Z,1.20
2019-04-28T00:04:22.246Z,1.72
2019-04-28T00:07:15.304Z,2.02
2019-04-28T00:10:20.932Z,1.57
2019-04-28T00:13:12.434Z,1.30
2019-04-28T00:16:05.487Z,1.57
2019-04-28T00:18:58.279Z,1.40
2019-04-28T00:22:02.346Z,2.05
2019-04-28T00:25:06.406Z,1.55
2019-04-28T00:28:01.539Z,1.40
2019-04-28T00:30:52.776Z,1.87
2019-04-28T00:33:46.346Z,1.32
2019-04-28T00:36:41.190Z,1.32
2019-04-28T00:39:32.458Z,1.87
2019-04-28T00:42:22.765Z,1.30
2019-04-28T00:45:15.498Z,2.42
2019-04-28T00:48:08.813Z,1.45
2019-04-28T00:51:01.933Z,1.92
2019-04-28T00:53:55.945Z,1.10
2019-04-28T00:56:49.262Z,1.30
2019-04-28T00:59:54.255Z,2.33
2019-04-28T01:02:53.561Z,1.50
2019-04-28T01:05:46.602Z,2.00
2019-04-28T01:08:41.889Z,1.50
2019-04-28T01:11:33.225Z,1.65
2019-04-28T01:14:26.536Z,1.55
2019-04-28T01:17:24.456Z,1.20
2019-04-28T01:20:17.512Z,1.80
2019-04-28T01:23:10.585Z,1.62
2019-04-28T01:26:04.392Z,1.47
2019-04-28T01:28:57.190Z,1.00
2019-04-28T01:32:04.588Z,1.22
2019-04-28T01:34:59.787Z,1.50
2019-04-28T01:37:52.231Z,1.52
2019-04-28T01:40:45.045Z,1.07
2019-04-28T01:43:37.832Z,1.77
2019-04-28T01:46:39.890Z,1.72
2019-04-28T01:49:31.883Z,1.60
2019-04-28T01:52:24.935Z,1.30
2019-04-28T01:55:20.014Z,1.57
2019-04-28T01:58:11.560Z,2.02
2019-04-28T02:01:05.384Z,1.45
2019-04-28T02:04:00.118Z,1.55
2019-04-28T02:06:51.495Z,1.75
2019-04-28T02:09:44.294Z,1.92
2019-04-28T02:12:37.357Z,2.17
2019-04-28T02:15:30.405Z,1.75
2019-04-28T02:18:23.212Z,1.65
2019-04-28T02:21:30.341Z,1.27
2019-04-28T02:24:32.872Z,1.72
2019-04-28T02:27:25.927Z,1.90
2019-04-28T02:30:22.601Z,2.05
2019-04-28T02:33:12.041Z,1.90
2019-04-28T02:36:08.563Z,1.25
2019-04-28T02:38:57.638Z,1.47
2019-04-28T02:41:51.228Z,1.77
2019-04-28T02:44:44.270Z,1.72
2019-04-28T02:47:37.065Z,1.35
2019-04-28T02:50:47.273Z,1.07
2019-04-28T02:53:42.374Z,1.95
2019-04-28T02:56:35.434Z,1.42
2019-04-28T02:59:30.424Z,1.72
2019-04-28T03:02:21.140Z,1.57
2019-04-28T03:05:11.654Z,1.67
2019-04-28T03:08:03.048Z,1.20
2019-04-28T03:10:56.123Z,1.45
2019-04-28T03:13:50.827Z,1.77
2019-04-28T03:16:41.705Z,1.40
2019-04-28T03:19:33.800Z,1.40
2019-04-28T03:22:24.488Z,1.00
2019-04-28T03:25:20.304Z,1.70
2019-04-28T03:28:22.127Z,1.50
2019-04-28T03:31:55.158Z,1.87
2019-04-28T03:34:23.251Z,1.27
2019-04-28T03:37:13.578Z,1.25
2019-04-28T03:40:06.633Z,1.90
2019-04-28T03:43:02.860Z,2.02
2019-04-28T03:46:03.947Z,1.20
2019-04-28T03:48:56.813Z,1.30
2019-04-28T03:51:52.169Z,1.15
2019-04-28T03:54:44.965Z,1.60
2019-04-28T03:57:38.032Z,1.17
2019-04-28T04:00:31.463Z,1.92
2019-04-28T04:03:21.255Z,1.47
2019-04-28T04:06:13.358Z,1.40
2019-04-28T04:09:06.408Z,1.10
2019-04-28T04:12:03.571Z,1.37
2019-04-28T04:15:04.045Z,1.47
2019-04-28T04:18:03.470Z,1.35
2019-04-28T04:20:56.553Z,1.87
2019-04-28T04:23:50.995Z,1.85
2019-04-28T04:26:42.920Z,1.80
2019-04-28T04:29:35.726Z,1.32
2019-04-28T04:32:30.517Z,1.60
2019-04-28T04:35:21.598Z,1.35
2019-04-28T04:38:10.802Z,1.40
2019-04-28T04:41:04.616Z,1.50
2019-04-28T04:44:00.766Z,1.87
2019-04-28T04:46:52.527Z,1.50
2019-04-28T04:49:45.832Z,1.20
2019-04-28T04:52:40.274Z,1.75
2019-04-28T04:55:31.950Z,1.77
2019-04-28T04:58:24.744Z,1.50
2019-04-28T05:01:30.396Z,2.33
2019-04-28T05:04:31.083Z,1.50
2019-04-28T05:07:24.135Z,1.42
2019-04-28T05:10:16.934Z,1.70
2019-04-28T05:13:10.254Z,1.70
2019-04-28T05:16:02.792Z,1.70
2019-04-28T05:18:55.601Z,2.12
2019-04-28T05:21:49.835Z,1.90
2019-04-28T05:25:00.087Z,1.30
2019-04-28T05:27:54.609Z,1.80
2019-04-28T05:30:44.458Z,1.47
2019-04-28T05:33:43.655Z,2.02
2019-04-28T05:36:41.162Z,1.72
2019-04-28T05:39:29.853Z,1.75
2019-04-28T05:42:23.335Z,1.80
2019-04-28T05:45:16.396Z,1.42
2019-04-28T05:48:11.311Z,1.10
2019-04-28T05:51:10.954Z,1.75
2019-04-28T05:54:11.176Z,1.72
2019-04-28T05:57:32.392Z,2.33
2019-04-28T06:00:42.856Z,1.87
2019-04-28T06:03:35.911Z,1.92
2019-04-28T06:06:30.285Z,1.95
2019-04-28T06:09:31.755Z,1.65
2019-04-28T06:12:26.856Z,2.70
2019-04-28T06:15:20.464Z,2.45
2019-04-28T06:18:13.738Z,2.33
2019-04-28T06:21:06.536Z,1.47
2019-04-28T06:23:59.595Z,1.30
2019-04-28T06:26:52.648Z,1.67
2019-04-28T06:29:45.704Z,1.30
2019-04-28T06:32:39.527Z,2.02
2019-04-28T06:35:32.584Z,2.12
2019-04-28T06:38:25.639Z,2.33
2019-04-28T06:41:18.442Z,1.95
2019-04-28T06:44:11.240Z,2.30
2019-04-28T06:47:06.602Z,2.10
2019-04-28T06:49:59.910Z,2.12
2019-04-28T06:52:52.718Z,1.72
2019-04-28T06:55:45.515Z,1.75
2019-04-28T06:58:38.315Z,1.30
2019-04-28T07:01:31.371Z,1.52
2019-04-28T07:04:21.094Z,1.62
2019-04-28T07:07:13.900Z,1.62
2019-04-28T07:10:06.954Z,2.30
2019-04-28T07:13:00.011Z,2.08
2019-04-28T07:15:53.322Z,1.42
2019-04-28T07:18:47.401Z,1.85
2019-04-28T07:21:44.819Z,2.33
2019-04-28T07:24:38.122Z,2.12
2019-04-28T07:27:31.175Z,1.50
2019-04-28T07:30:23.981Z,1.92
2019-04-28T07:33:17.038Z,1.85
2019-04-28T07:36:18.539Z,1.40
2019-04-28T07:39:11.592Z,1.52
2019-04-28T07:42:05.929Z,2.25
2019-04-28T07:44:58.987Z,1.50
2019-04-28T07:47:53.320Z,1.80
2019-04-28T07:50:46.907Z,1.57
2019-04-28T07:53:43.527Z,2.15
2019-04-28T07:56:36.841Z,1.77
2019-04-28T07:59:29.898Z,1.70
2019-04-28T08:02:22.952Z,1.62
2019-04-28T08:05:15.756Z,1.82
2019-04-28T08:08:08.806Z,2.12
2019-04-28T08:11:01.613Z,1.52
2019-04-28T08:13:54.667Z,1.65
2019-04-28T08:16:47.726Z,1.37
2019-04-28T08:19:42.063Z,1.75
2019-04-28T08:22:35.368Z,1.70
2019-04-28T08:25:28.683Z,1.57
2019-04-28T08:28:21.737Z,1.27
2019-04-28T08:31:10.959Z,1.52
2019-04-28T08:34:08.107Z,1.60
2019-04-28T08:36:57.422Z,1.22
2019-04-28T08:39:50.377Z,2.62
2019-04-28T08:42:43.182Z,1.77
2019-04-28T08:45:32.439Z,1.80
2019-04-28T08:48:25.446Z,2.08
2019-04-28T08:51:22.603Z,2.02
2019-04-28T08:54:11.821Z,1.60
2019-04-28T08:57:05.151Z,2.02
2019-04-28T08:59:54.344Z,2.05
2019-04-28T09:02:58.665Z,1.75
2019-04-28T09:05:51.472Z,2.22
2019-04-28T09:08:45.041Z,2.08
2019-04-28T09:11:40.905Z,1.98
2019-04-28T09:14:34.219Z,1.65
2019-04-28T09:17:27.793Z,2.10
2019-04-28T09:20:21.098Z,2.05
2019-04-28T09:23:15.176Z,1.65
2019-04-28T09:26:09.259Z,1.72
2019-04-28T09:29:02.312Z,1.67
2019-04-28T09:31:55.370Z,1.20
2019-04-28T09:34:48.424Z,1.62
2019-04-28T09:37:41.483Z,1.95
2019-04-28T09:40:41.709Z,1.25
2019-04-28T09:43:46.281Z,1.25
2019-04-28T09:46:42.669Z,1.30
2019-04-28T09:49:36.533Z,1.90
2019-04-28T09:52:29.543Z,1.75
2019-04-28T09:55:30.539Z,1.77
2019-04-28T09:58:23.338Z,1.90
2019-04-28T10:01:16.137Z,1.42
2019-04-28T10:04:08.937Z,2.05
2019-04-28T10:07:01.739Z,1.47
2019-04-28T10:09:54.541Z,1.85
2019-04-28T10:12:47.848Z,1.82
2019-04-28T10:15:40.648Z,1.50
2019-04-28T10:18:33.704Z,1.85
2019-04-28T10:21:27.024Z,1.30
2019-04-28T10:24:21.097Z,1.22
2019-04-28T10:27:10.574Z,1.67
2019-04-28T10:30:03.629Z,1.40
2019-04-28T10:32:56.433Z,1.35
2019-04-28T10:35:49.485Z,1.55
2019-04-28T10:38:42.537Z,1.98
2019-04-28T10:41:43.275Z,1.47
2019-04-28T10:44:36.586Z,1.30
2019-04-28T10:47:30.410Z,1.40
2019-04-28T10:50:23.210Z,1.52
2019-04-28T10:53:16.523Z,2.05
2019-04-28T10:56:09.576Z,1.70
2019-04-28T10:59:10.313Z,1.95
2019-04-28T11:02:03.369Z,1.60
2019-04-28T11:05:19.465Z,2.10
2019-04-28T11:08:12.775Z,2.10
2019-04-28T11:11:05.582Z,2.08
2019-04-28T11:13:59.400Z,1.90
2019-04-28T11:16:52.718Z,1.80
2019-04-28T11:19:45.510Z,1.87
2019-04-28T11:22:38.315Z,1.85
2019-04-28T11:25:31.368Z,2.15
2019-04-28T11:28:21.041Z,1.80
2019-04-28T11:31:14.412Z,1.87
2019-04-28T11:34:36.925Z,2.12
2019-04-28T11:37:29.960Z,3.17
2019-04-28T11:40:23.019Z,2.02
2019-04-28T11:43:16.078Z,2.20
2019-04-28T11:46:08.874Z,1.62
2019-04-28T11:52:07.783Z,1.42
2019-04-28T11:55:02.380Z,1.95
2019-04-28T11:57:55.435Z,1.98
2019-04-28T12:00:49.002Z,1.85
2019-04-28T12:03:42.061Z,1.57
2019-04-28T12:06:35.367Z,1.90
2019-04-28T12:09:40.201Z,1.32
2019-04-28T12:12:44.007Z,2.05
2019-04-28T12:15:48.331Z,1.85
2019-04-28T12:18:55.207Z,1.80
2019-04-28T12:21:49.032Z,2.30
2019-04-28T12:24:37.992Z,1.52
2019-04-28T12:27:32.073Z,1.62
2019-04-28T12:30:24.872Z,1.42
2019-04-28T12:33:18.699Z,1.42
2019-04-28T12:36:11.752Z,1.40
2019-04-28T12:39:04.809Z,1.60
2019-04-28T12:41:57.863Z,1.67
2019-04-28T12:44:50.922Z,2.42
2019-04-28T12:47:45.004Z,1.77
2019-04-28T12:50:50.095Z,0.88
2019-04-28T12:53:42.890Z,1.30
2019-04-28T12:56:36.967Z,1.20
2019-04-28T12:59:33.609Z,1.70
2019-04-28T13:02:53.543Z,1.12
2019-04-28T13:05:43.298Z,1.07
2019-04-28T13:08:36.327Z,1.65
2019-04-28T13:11:29.385Z,1.87
2019-04-28T13:14:23.462Z,2.12
2019-04-28T13:17:16.519Z,2.45
2019-04-28T13:20:09.320Z,2.47
2019-04-28T13:23:02.399Z,2.05
2019-04-28T13:25:55.688Z,1.57
2019-04-28T13:28:48.491Z,2.67
2019-04-28T13:31:52.812Z,2.00
2019-04-28T13:34:46.376Z,2.72
2019-04-28T13:37:35.540Z,2.40
2019-04-28T13:40:41.449Z,2.08
2019-04-28T13:43:37.318Z,2.92
2019-04-28T13:46:30.128Z,2.60
2019-04-28T13:49:19.338Z,3.02
2019-04-28T13:52:13.671Z,3.20
2019-04-28T13:55:08.281Z,2.70
2019-04-28T13:58:03.428Z,2.47
2019-04-28T14:01:05.952Z,2.80
2019-04-28T14:04:13.544Z,4.12
2019-04-28T14:07:08.650Z,3.47
2019-04-28T14:10:01.708Z,3.52
2019-04-28T14:12:54.760Z,2.80
2019-04-28T14:15:48.485Z,2.95
2019-04-28T14:18:38.058Z,3.05
2019-04-28T14:21:31.372Z,3.30
2019-04-28T14:24:27.281Z,2.95
2019-04-28T14:27:20.048Z,3.05
2019-04-28T14:30:13.616Z,3.30
2019-04-28T14:33:07.981Z,2.72
2019-04-28T14:36:00.999Z,2.70
2019-04-28T14:38:54.064Z,3.35
2019-04-28T14:41:46.856Z,3.42
2019-04-28T14:44:39.949Z,2.80
2019-04-28T14:47:33.276Z,3.02
2019-04-28T14:50:27.883Z,2.50
2019-04-28T14:53:20.872Z,3.00
2019-04-28T14:56:13.966Z,2.60
2019-04-28T14:59:07.495Z,2.92
2019-04-28T15:05:29.708Z,2.83
2019-04-28T15:08:37.098Z,2.65
2019-04-28T15:11:41.481Z,2.35
2019-04-28T15:14:34.476Z,2.90
2019-04-28T15:17:23.435Z,3.02
2019-04-28T15:20:17.515Z,1.85
2019-04-28T15:23:10.570Z,2.92
2019-04-28T15:26:03.374Z,2.72
2019-04-28T15:28:56.423Z,2.25
2019-04-28T15:31:49.481Z,2.60
2019-04-28T15:34:42.279Z,2.50
2019-04-28T15:37:35.336Z,2.17
2019-04-28T15:40:28.396Z,2.12
2019-04-28T15:43:21.197Z,2.37
2019-04-28T15:46:14.504Z,2.12
2019-04-28T15:49:03.722Z,2.12
2019-04-28T15:51:50.890Z,2.20
2019-04-28T15:54:44.716Z,2.55
2019-04-28T15:57:37.513Z,2.92
2019-04-28T16:00:30.572Z,1.80
2019-04-28T16:03:23.370Z,2.10
2019-04-28T16:06:16.423Z,1.98
2019-04-28T16:09:09.483Z,2.45
2019-04-28T16:12:02.791Z,2.37
2019-04-28T16:14:56.103Z,2.35
2019-04-28T16:17:49.422Z,2.52
2019-04-28T16:20:43.497Z,2.67
2019-04-28T16:23:36.807Z,2.30
2019-04-28T16:26:29.615Z,2.47
2019-04-28T16:29:22.408Z,2.17
2019-04-28T16:32:15.211Z,2.42
2019-04-28T16:35:08.265Z,2.17
2019-04-28T16:38:01.576Z,2.27
2019-04-28T16:41:07.689Z,2.27
2019-04-28T16:44:18.664Z,2.60
2019-04-28T16:47:12.242Z,2.25
2019-04-28T16:50:01.933Z,2.37
2019-04-28T16:52:55.014Z,2.52
2019-04-28T16:55:53.452Z,2.37
2019-04-28T16:59:03.400Z,2.08
2019-04-28T17:02:19.504Z,2.37
2019-04-28T17:05:12.577Z,1.98
2019-04-28T17:08:02.031Z,2.25
2019-04-28T17:10:55.076Z,1.70
2019-04-28T17:13:54.030Z,2.17
2019-04-28T17:16:47.349Z,1.87
2019-04-28T17:19:37.611Z,2.22
2019-04-28T17:22:30.887Z,2.05
2019-04-28T17:25:23.943Z,2.17
2019-04-28T17:28:17.254Z,2.17
2019-04-28T17:31:10.058Z,1.92
2019-04-28T17:34:02.855Z,1.87
2019-04-28T17:36:56.167Z,1.95
2019-04-28T17:39:49.227Z,2.10
2019-04-28T17:42:53.806Z,1.92
2019-04-28T17:45:47.629Z,2.20
2019-04-28T17:48:44.263Z,2.10
2019-04-28T17:51:37.325Z,1.98
2019-04-28T17:55:22.351Z,2.10
2019-04-28T17:58:15.914Z,2.58
2019-04-28T18:01:22.541Z,2.72
2019-04-28T18:04:26.858Z,2.50
2019-04-28T18:07:24.268Z,1.90
2019-04-28T18:10:28.871Z,2.17
2019-04-28T18:13:21.898Z,1.90
2019-04-28T18:16:26.219Z,2.02
2019-04-28T18:19:30.280Z,2.40
2019-04-28T18:22:23.339Z,2.27
2019-04-28T18:25:16.393Z,2.20
2019-04-28T18:28:09.198Z,1.82
2019-04-28T18:31:08.390Z,2.02
2019-04-28T18:34:30.890Z,2.45
2019-04-28T18:37:35.209Z,2.05
2019-04-28T18:40:35.944Z,1.95
2019-04-28T18:43:40.264Z,2.15
2019-04-28T18:46:36.137Z,2.08
2019-04-28T18:49:29.196Z,2.30
2019-04-28T18:52:22.507Z,2.50
2019-04-28T18:55:11.720Z,2.27
2019-04-28T18:58:05.820Z,1.85
2019-04-28T19:01:02.695Z,2.47
2019-04-28T19:03:57.033Z,2.90
2019-04-28T19:07:04.069Z,1.98
2019-04-28T19:10:03.565Z,2.72
2019-04-28T19:13:01.810Z,2.37
2019-04-28T19:16:06.120Z,2.70
2019-04-28T19:18:59.176Z,2.30
2019-04-28T19:21:55.306Z,2.25
2019-04-28T19:24:48.104Z,2.30
2019-04-28T19:27:41.159Z,2.75
2019-04-28T19:30:34.477Z,2.80
2019-04-28T19:33:23.758Z,2.80
2019-04-28T19:36:17.771Z,2.45
2019-04-28T19:39:11.850Z,3.00
2019-04-28T19:42:05.692Z,3.05
2019-04-28T19:44:58.985Z,2.90
2019-04-28T19:47:52.092Z,2.65
2019-04-28T19:50:45.098Z,2.30
2019-04-28T19:53:38.152Z,2.40
2019-04-28T19:56:39.913Z,2.75
2019-04-28T19:59:42.439Z,2.65
2019-04-28T20:02:36.524Z,3.27
2019-04-28T20:05:29.577Z,2.40
2019-04-28T20:08:22.636Z,2.55
2019-04-28T20:11:15.689Z,2.25
2019-04-28T20:14:07.541Z,2.55
2019-04-28T20:17:01.544Z,2.60
2019-04-28T20:19:50.779Z,2.58
2019-04-28T20:22:43.822Z,2.42
2019-04-28T20:25:36.882Z,2.40
2019-04-28T20:28:30.184Z,2.25
2019-04-28T20:31:19.578Z,2.67
2019-04-28T20:34:12.713Z,2.02
2019-04-28T20:37:09.866Z,2.25
2019-04-28T20:40:03.945Z,2.20
2019-04-28T20:43:03.405Z,2.35
2019-04-28T20:45:56.464Z,2.37
2019-04-28T20:48:49.257Z,2.35
2019-04-28T20:51:42.311Z,2.42
2019-04-28T20:54:36.141Z,2.47
2019-04-28T20:57:36.775Z,2.67
2019-04-28T21:00:29.675Z,2.95
2019-04-28T21:03:22.728Z,2.40
2019-04-28T21:06:16.054Z,2.00
2019-04-28T21:09:11.145Z,3.02
2019-04-28T21:12:04.457Z,2.60
2019-04-28T21:14:57.798Z,3.58
2019-04-28T21:17:51.079Z,3.40
2019-04-28T21:20:44.139Z,2.62
2019-04-28T21:23:37.707Z,2.98
2019-04-28T21:26:31.277Z,3.17
2019-04-28T21:29:32.008Z,3.83
2019-04-28T21:32:25.086Z,2.30
2019-04-28T21:35:19.155Z,3.00
2019-04-28T21:38:12.200Z,3.45
2019-04-28T21:41:05.262Z,2.47
2019-04-28T21:44:09.832Z,2.40
2019-04-28T21:47:14.155Z,2.65
2019-04-28T21:50:07.471Z,3.12
2019-04-28T21:53:00.526Z,3.35
2019-04-28T21:55:54.605Z,3.55
2019-04-28T21:58:41.768Z,2.02
2019-04-28T22:01:35.085Z,2.30
2019-04-28T22:04:28.133Z,2.95
2019-04-28T22:07:22.474Z,3.45
2019-04-28T22:10:12.967Z,2.67
2019-04-28T22:13:06.022Z,2.52
2019-04-28T22:15:59.856Z,3.25
2019-04-28T22:18:53.162Z,4.00
2019-04-28T22:24:51.054Z,3.00
2019-04-28T22:27:50.252Z,3.10
2019-04-28T22:30:43.566Z,2.12
2019-04-28T22:33:37.646Z,3.27
2019-04-28T22:36:30.698Z,3.20
2019-04-28T22:39:23.751Z,2.77
2019-04-28T22:42:16.805Z,3.00
2019-04-28T22:45:11.400Z,2.65
2019-04-28T22:48:04.972Z,3.12
2019-04-28T22:50:58.538Z,2.37
2019-04-28T22:53:48.525Z,2.72
2019-04-28T22:56:59.250Z,2.50
2019-04-28T22:59:55.366Z,1.77
2019-04-28T23:02:48.681Z,2.17
2019-04-28T23:05:38.153Z,1.62
2019-04-28T23:08:31.721Z,3.17
2019-04-28T23:11:25.554Z,4.25
2019-04-28T23:14:18.598Z,2.50
2019-04-28T23:17:12.939Z,3.75
2019-04-28T23:20:05.997Z,4.53
2019-04-28T23:23:10.824Z,2.27
2019-04-28T23:26:03.883Z,2.45
2019-04-28T23:28:56.936Z,3.98
2019-04-28T23:31:50.506Z,4.60
2019-04-28T23:34:44.090Z,2.77
2019-04-28T23:37:33.522Z,2.87
2019-04-28T23:40:27.623Z,2.45
2019-04-28T23:43:20.422Z,3.87
2019-04-28T23:46:13.494Z,4.65
2019-04-28T23:49:06.540Z,2.92
2019-04-28T23:52:05.481Z,4.40
2019-04-28T23:55:09.802Z,5.15
2019-04-28T23:58:21.289Z,3.42
